Home   Weather   USA   Presque Isle   Past weeks
Flag for USA

Past Weather in Presque Isle, Maine, USA — Yesterday and Last 2 Weeks

Currently: 36 °F. Fog. (Weather station: Northern Maine Regional Airport, USA). See more current weather

Past Weather in Presque Isle — Graph

°F

Presque Isle Temperature Yesterday

Maximum temperature yesterday: 64 °F (at 1:56 pm)
Minimum temperature yesterday: 42 °F (at 11:56 pm)
Average temperature yesterday: 56 °F

High & Low Weather Summary for the Past Weeks

 TemperatureHumidityPressure
High83 °F (May 21, 3:56 pm)100% (May 16, 12:56 am)30.28 "Hg (May 16, 12:56 am)
Low38 °F (May 30, 2:56 am)34% (May 21, 3:56 pm)29.53 "Hg (May 28, 5:29 pm)
Average60 °F78%29.95 "Hg
* Reported May 15 2:56 am — May 30 2:56 am, Presque Isle. Weather by CustomWeather, © 2024

Note: Actual official high and low records may vary slightly from our data, if they occured in-between our weather recording intervals... More about our weather records

Presque Isle Weather History for the Previous 24 Hours

Scroll right to see more
 ConditionsComfort  
Time TempWeatherWind HumidityBarometerVisibility
2:56 am
Thu, May 30
38 °FClear.No wind97%30.04 "Hg10 mi
1:56 am39 °FFog.No wind96%30.03 "Hg3 mi
12:56 am40 °FFog.No wind100%30.02 "Hg3 mi
12:25 am41 °FFog.3 mph100%29.94 "Hg1 mi
11:56 pm
Wed, May 29
42 °FClear.No wind100%30.02 "Hg9 mi
11:38 pm43 °FFog.3 mph100%29.94 "Hg2 mi
10:56 pm44 °FFog.No wind100%30.02 "Hg3 mi
9:56 pm48 °FClear.5 mph86%30.01 "Hg10 mi
8:56 pm53 °FClear.6 mph69%30.00 "Hg10 mi
7:56 pm56 °FSunny.12 mph65%29.98 "Hg10 mi
6:56 pm59 °FPartly sunny.10 mph60%29.94 "Hg10 mi
5:56 pm62 °FOvercast.10 mph54%29.91 "Hg10 mi
4:56 pm63 °FOvercast.12 mph52%29.90 "Hg10 mi
3:56 pm63 °FOvercast.15 mph54%29.88 "Hg10 mi
2:56 pm63 °FOvercast.13 mph54%29.88 "Hg10 mi
1:56 pm64 °FPartly sunny.9 mph52%29.86 "Hg10 mi
12:56 pm62 °FOvercast.14 mph54%29.85 "Hg10 mi
11:56 am60 °FOvercast.14 mph58%29.84 "Hg10 mi
10:56 am58 °FMostly cloudy.10 mph62%29.83 "Hg10 mi
9:56 am57 °FOvercast.12 mph64%29.82 "Hg10 mi
8:56 am56 °FMostly cloudy.10 mph72%29.79 "Hg10 mi
7:56 am56 °FOvercast.9 mph72%29.77 "Hg10 mi
7:07 am54 °FMore clouds than sun.10 mph82%29.68 "Hg10 mi
6:56 am54 °FMostly cloudy.13 mph80%29.75 "Hg10 mi
6:17 am57 °FMostly cloudy.7 mph77%29.66 "Hg10 mi
5:56 am55 °FPartly sunny.7 mph87%29.72 "Hg10 mi
4:56 am55 °FPartly sunny.6 mph87%29.70 "Hg10 mi
Weather by CustomWeather, © 2024

See weather overview